createdAt,value
2023-04-30T00:00:33.619Z,100827.50
2023-04-30T00:03:02.038Z,100823.31
2023-04-30T00:05:31.417Z,100820.06
2023-04-30T00:07:59.060Z,100819.97
2023-04-30T00:10:26.936Z,100819.13
2023-04-30T00:12:54.674Z,100825.13
2023-04-30T00:15:22.400Z,100825.19
2023-04-30T00:17:50.090Z,100825.13
2023-04-30T00:20:18.520Z,100832.94
2023-04-30T00:22:48.279Z,100832.22
2023-04-30T00:25:16.566Z,100830.19
2023-04-30T00:27:44.572Z,100833.59
2023-04-30T00:30:13.311Z,100837.25
2023-04-30T00:32:41.964Z,100841.91
2023-04-30T00:35:11.327Z,100844.47
2023-04-30T00:37:39.850Z,100845.19
2023-04-30T00:40:11.739Z,100841.09
2023-04-30T00:42:40.215Z,100838.75
2023-04-30T00:45:09.467Z,100840.44
2023-04-30T00:47:37.991Z,100841.28
2023-04-30T00:50:08.127Z,100830.94
2023-04-30T00:52:36.251Z,100839.63
2023-04-30T00:55:08.791Z,100832.63
2023-04-30T00:57:39.623Z,100834.69
2023-04-30T01:00:11.337Z,100829.91
2023-04-30T01:02:39.405Z,100832.47
2023-04-30T01:05:09.083Z,100839.63
2023-04-30T01:07:41.768Z,100837.00
2023-04-30T01:10:10.790Z,100836.91
2023-04-30T01:12:47.678Z,100830.50
2023-04-30T01:15:24.053Z,100829.34
2023-04-30T01:17:57.765Z,100830.41
2023-04-30T01:20:29.502Z,100828.50
2023-04-30T01:23:10.696Z,100821.66
2023-04-30T01:26:07.604Z,100832.28
2023-04-30T01:28:37.509Z,100823.41
2023-04-30T01:31:13.703Z,100819.94
2023-04-30T01:33:41.925Z,100824.19
2023-04-30T01:36:27.329Z,100826.31
2023-04-30T01:39:17.680Z,100823.44
2023-04-30T01:41:54.895Z,100823.56
2023-04-30T01:44:47.064Z,100818.69
2023-04-30T01:47:31.501Z,100828.38
2023-04-30T01:50:16.661Z,100833.56
2023-04-30T01:52:48.226Z,100845.47
2023-04-30T01:55:21.260Z,100841.00
2023-04-30T01:57:58.155Z,100832.41
2023-04-30T02:00:28.859Z,100828.22
2023-04-30T02:02:57.214Z,100833.59
2023-04-30T02:05:25.175Z,100833.59
2023-04-30T02:07:53.840Z,100825.75
2023-04-30T02:10:25.095Z,100832.53
2023-04-30T02:12:53.373Z,100829.25
2023-04-30T02:15:21.412Z,100830.88
2023-04-30T02:17:50.630Z,100831.88
2023-04-30T02:20:18.631Z,100837.34
2023-04-30T02:22:46.803Z,100834.34
2023-04-30T02:25:14.815Z,100833.47
2023-04-30T02:27:42.495Z,100842.22
2023-04-30T02:30:11.048Z,100835.47
2023-04-30T02:32:38.822Z,100828.69
2023-04-30T02:35:08.916Z,100824.94
2023-04-30T02:37:36.784Z,100824.19
2023-04-30T02:40:05.116Z,100827.63
2023-04-30T02:42:32.900Z,100825.91
2023-04-30T02:45:00.554Z,100826.84
2023-04-30T02:47:28.554Z,100828.00
2023-04-30T02:49:56.567Z,100836.38
2023-04-30T02:52:26.224Z,100825.44
2023-04-30T02:54:54.005Z,100833.03
2023-04-30T02:57:21.907Z,100826.41
2023-04-30T02:59:50.062Z,100827.31
2023-04-30T03:02:21.689Z,100839.69
2023-04-30T03:04:49.673Z,100833.16
2023-04-30T03:07:17.374Z,100841.16
2023-04-30T03:09:47.669Z,100841.88
2023-04-30T03:12:15.828Z,100832.47
2023-04-30T03:14:43.634Z,100842.19
2023-04-30T03:17:11.625Z,100834.28
2023-04-30T03:19:39.379Z,100832.31
2023-04-30T03:22:07.058Z,100828.81
2023-04-30T03:24:35.106Z,100831.63
2023-04-30T03:27:04.552Z,100832.34
2023-04-30T03:29:32.267Z,100825.66
2023-04-30T03:32:00.118Z,100823.16
2023-04-30T03:34:27.911Z,100831.91
2023-04-30T03:36:56.435Z,100825.94
2023-04-30T03:39:24.808Z,100825.78
2023-04-30T03:41:52.557Z,100834.91
2023-04-30T03:44:23.609Z,100835.91
2023-04-30T03:46:51.447Z,100835.34
2023-04-30T03:49:19.549Z,100832.75
2023-04-30T03:51:47.243Z,100830.94
2023-04-30T03:54:15.485Z,100829.13
2023-04-30T03:56:44.344Z,100820.63
2023-04-30T03:59:12.269Z,100824.03
2023-04-30T04:01:42.273Z,100823.34
2023-04-30T04:04:10.214Z,100829.28
2023-04-30T04:06:38.062Z,100830.19
2023-04-30T04:09:06.549Z,100834.66
2023-04-30T04:11:34.657Z,100833.88
2023-04-30T04:14:03.011Z,100837.50
2023-04-30T04:16:31.103Z,100836.47
2023-04-30T04:19:01.093Z,100842.53
2023-04-30T04:21:29.812Z,100843.56
2023-04-30T04:23:58.276Z,100847.59
2023-04-30T04:26:28.963Z,100844.41
2023-04-30T04:28:56.807Z,100846.34
2023-04-30T04:31:24.819Z,100843.59
2023-04-30T04:33:58.156Z,100841.81
2023-04-30T04:36:28.938Z,100841.81
2023-04-30T04:39:02.006Z,100840.22
2023-04-30T04:41:30.507Z,100851.28
2023-04-30T04:43:58.451Z,100853.13
2023-04-30T04:46:28.260Z,100857.66
2023-04-30T04:48:56.313Z,100855.63
2023-04-30T04:51:24.172Z,100856.28
2023-04-30T04:53:53.310Z,100852.69
2023-04-30T04:56:21.356Z,100855.91
2023-04-30T04:58:49.087Z,100854.81
2023-04-30T05:01:17.430Z,100851.44
2023-04-30T05:03:47.634Z,100853.84
2023-04-30T05:06:15.984Z,100854.69
2023-04-30T05:08:43.821Z,100855.75
2023-04-30T05:11:15.618Z,100852.50
2023-04-30T05:13:43.937Z,100849.94
2023-04-30T05:16:11.911Z,100851.00
2023-04-30T05:18:39.818Z,100853.00
2023-04-30T05:21:08.311Z,100851.41
2023-04-30T05:23:36.675Z,100851.28
2023-04-30T05:26:05.414Z,100852.56
2023-04-30T05:28:37.285Z,100852.56
2023-04-30T05:31:05.257Z,100857.81
2023-04-30T05:33:33.941Z,100858.09
2023-04-30T05:36:01.847Z,100856.75
2023-04-30T05:38:29.535Z,100858.50
2023-04-30T05:40:57.179Z,100861.63
2023-04-30T05:43:24.860Z,100870.34
2023-04-30T05:45:54.193Z,100871.31
2023-04-30T05:48:21.860Z,100867.69
2023-04-30T05:50:49.637Z,100872.78
2023-04-30T05:53:17.277Z,100867.59
2023-04-30T05:55:45.008Z,100865.97
2023-04-30T05:58:13.309Z,100871.47
2023-04-30T06:00:41.008Z,100864.69
2023-04-30T06:03:10.205Z,100865.66
2023-04-30T06:05:38.297Z,100865.47
2023-04-30T06:08:06.335Z,100871.63
2023-04-30T06:10:34.345Z,100871.44
2023-04-30T06:13:02.071Z,100869.78
2023-04-30T06:15:29.751Z,100859.00
2023-04-30T06:17:57.577Z,100862.13
2023-04-30T06:20:27.282Z,100863.28
2023-04-30T06:22:55.570Z,100861.75
2023-04-30T06:25:23.314Z,100865.06
2023-04-30T06:27:54.370Z,100859.22
2023-04-30T06:30:22.203Z,100858.25
2023-04-30T06:32:50.105Z,100858.03
2023-04-30T06:35:17.949Z,100863.41
2023-04-30T06:37:47.022Z,100863.09
2023-04-30T06:40:15.723Z,100852.38
2023-04-30T06:42:45.058Z,100858.78
2023-04-30T06:45:15.201Z,100861.41
2023-04-30T06:47:44.836Z,100854.84
2023-04-30T06:50:12.601Z,100859.19
2023-04-30T06:52:41.133Z,100851.47
2023-04-30T06:55:10.762Z,100861.19
2023-04-30T06:57:38.547Z,100862.50
2023-04-30T07:00:07.389Z,100863.97
2023-04-30T07:02:35.151Z,100867.44
2023-04-30T07:05:03.227Z,100861.69
2023-04-30T07:07:32.703Z,100863.22
2023-04-30T07:10:04.066Z,100856.09
2023-04-30T07:12:33.439Z,100855.97
2023-04-30T07:15:06.016Z,100854.19
2023-04-30T07:17:43.256Z,100854.69
2023-04-30T07:20:14.848Z,100851.63
2023-04-30T07:22:44.718Z,100855.59
2023-04-30T07:25:12.690Z,100847.34
2023-04-30T07:27:42.195Z,100846.84
2023-04-30T07:30:10.927Z,100845.47
2023-04-30T07:32:40.981Z,100840.06
2023-04-30T07:35:09.442Z,100844.66
2023-04-30T07:37:41.218Z,100847.03
2023-04-30T07:40:15.399Z,100839.72
2023-04-30T07:42:46.587Z,100850.97
2023-04-30T07:45:15.466Z,100840.88
2023-04-30T07:47:43.327Z,100836.84
2023-04-30T07:50:12.317Z,100832.66
2023-04-30T07:52:40.060Z,100826.66
2023-04-30T07:55:08.703Z,100830.59
2023-04-30T07:57:36.508Z,100831.13
2023-04-30T08:00:07.307Z,100830.75
2023-04-30T08:02:40.221Z,100834.94
2023-04-30T08:05:09.385Z,100838.41
2023-04-30T08:07:37.592Z,100843.47
2023-04-30T08:10:06.375Z,100840.22
2023-04-30T08:12:37.448Z,100832.56
2023-04-30T08:15:08.548Z,100829.91
2023-04-30T08:17:36.734Z,100835.34
2023-04-30T08:20:06.781Z,100831.13
2023-04-30T08:22:34.909Z,100828.88
2023-04-30T08:25:03.210Z,100829.97
2023-04-30T08:27:32.389Z,100813.50
2023-04-30T08:30:00.087Z,100819.94
2023-04-30T08:32:29.805Z,100825.56
2023-04-30T08:34:57.862Z,100812.91
2023-04-30T08:37:25.646Z,100814.06
2023-04-30T08:39:53.521Z,100810.69
2023-04-30T08:42:25.966Z,100813.56
2023-04-30T08:44:53.647Z,100812.69
2023-04-30T08:47:22.583Z,100812.59
2023-04-30T08:49:52.017Z,100807.47
2023-04-30T08:52:20.121Z,100816.56
2023-04-30T08:54:49.046Z,100807.38
2023-04-30T08:57:16.818Z,100803.88
2023-04-30T08:59:46.200Z,100799.44
2023-04-30T09:02:14.223Z,100796.31
2023-04-30T09:04:43.446Z,100789.97
2023-04-30T09:07:14.591Z,100797.94
2023-04-30T09:09:43.100Z,100786.25
2023-04-30T09:12:18.673Z,100794.22
2023-04-30T09:15:02.972Z,100778.22
2023-04-30T09:17:31.494Z,100800.25
2023-04-30T09:20:08.415Z,100789.59
2023-04-30T09:22:39.134Z,100790.72
2023-04-30T09:25:08.373Z,100789.31
2023-04-30T09:27:37.035Z,100783.81
2023-04-30T09:30:05.675Z,100780.31
2023-04-30T09:32:40.756Z,100782.88
2023-04-30T09:35:33.209Z,100785.91
2023-04-30T09:38:08.177Z,100775.69
2023-04-30T09:40:38.640Z,100774.63
2023-04-30T09:43:06.887Z,100778.69
2023-04-30T09:45:47.492Z,100783.34
2023-04-30T09:48:18.076Z,100765.03
2023-04-30T09:50:47.205Z,100771.44
2023-04-30T09:53:17.933Z,100772.28
2023-04-30T09:55:47.746Z,100770.84
2023-04-30T09:58:17.372Z,100774.97
2023-04-30T10:00:48.356Z,100786.19
2023-04-30T10:03:20.180Z,100770.13
2023-04-30T10:05:58.089Z,100756.75
2023-04-30T10:08:31.870Z,100755.06
2023-04-30T10:11:04.031Z,100744.66
2023-04-30T10:13:34.347Z,100726.53
2023-04-30T10:16:10.611Z,100725.84
2023-04-30T10:18:43.800Z,100726.81
2023-04-30T10:21:16.503Z,100732.25
2023-04-30T10:23:45.930Z,100723.75
2023-04-30T10:26:16.648Z,100709.59
2023-04-30T10:28:44.370Z,100725.97
2023-04-30T10:31:14.418Z,100710.00
2023-04-30T10:33:51.528Z,100693.06
2023-04-30T10:36:27.735Z,100709.78
2023-04-30T10:38:56.923Z,100732.59
2023-04-30T10:41:28.239Z,100719.47
2023-04-30T10:44:01.781Z,100722.81
2023-04-30T10:46:30.500Z,100727.88
2023-04-30T10:49:00.143Z,100738.69
2023-04-30T10:51:46.506Z,100724.50
2023-04-30T10:54:18.620Z,100727.63
2023-04-30T10:56:48.488Z,100723.00
2023-04-30T10:59:16.379Z,100715.50
2023-04-30T11:02:03.546Z,100715.91
2023-04-30T11:04:31.600Z,100716.91
2023-04-30T11:07:09.921Z,100696.06
2023-04-30T11:09:42.343Z,100696.13
2023-04-30T11:12:15.333Z,100700.78
2023-04-30T11:14:45.189Z,100696.34
2023-04-30T11:17:14.665Z,100691.47
2023-04-30T11:19:53.335Z,100698.22
2023-04-30T11:22:24.320Z,100686.38
2023-04-30T11:25:05.304Z,100689.44
2023-04-30T11:27:34.672Z,100663.94
2023-04-30T11:30:03.310Z,100638.47
2023-04-30T11:32:35.587Z,100637.25
2023-04-30T11:35:04.564Z,100643.56
2023-04-30T11:37:33.809Z,100642.50
2023-04-30T11:40:05.957Z,100632.41
2023-04-30T11:42:35.586Z,100622.59
2023-04-30T11:45:09.003Z,100613.66
2023-04-30T11:47:46.925Z,100627.75
2023-04-30T11:50:16.632Z,100597.59
2023-04-30T11:52:50.952Z,100598.94
2023-04-30T11:55:21.372Z,100608.97
2023-04-30T11:57:50.441Z,100609.47
2023-04-30T12:00:20.112Z,100584.94
2023-04-30T12:02:50.306Z,100584.22
2023-04-30T12:05:20.163Z,100611.19
2023-04-30T12:07:49.381Z,100584.34
2023-04-30T12:10:17.718Z,100591.78
2023-04-30T12:12:49.298Z,100585.13
2023-04-30T12:15:20.013Z,100592.75
2023-04-30T12:17:47.868Z,100592.78
2023-04-30T12:20:16.525Z,100593.41
2023-04-30T12:22:45.181Z,100595.50
2023-04-30T12:25:14.776Z,100593.19
2023-04-30T12:27:43.521Z,100579.94
2023-04-30T12:30:13.765Z,100592.59
2023-04-30T12:32:43.625Z,100584.41
2023-04-30T12:35:16.632Z,100596.84
2023-04-30T12:37:45.720Z,100588.03
2023-04-30T12:40:14.669Z,100586.88
2023-04-30T12:42:43.641Z,100588.56
2023-04-30T12:45:13.644Z,100584.88
2023-04-30T12:47:43.325Z,100588.50
2023-04-30T12:50:13.366Z,100593.38
2023-04-30T12:52:42.180Z,100596.16
2023-04-30T12:55:19.591Z,100591.94
2023-04-30T12:58:07.548Z,100599.13
2023-04-30T13:00:47.749Z,100595.06
2023-04-30T13:03:18.129Z,100576.75
2023-04-30T13:05:49.309Z,100576.72
2023-04-30T13:08:18.196Z,100567.09
2023-04-30T13:10:46.437Z,100571.59
2023-04-30T13:13:15.270Z,100562.50
2023-04-30T13:15:44.135Z,100560.41
2023-04-30T13:18:15.990Z,100562.91
2023-04-30T13:20:44.658Z,100545.56
2023-04-30T13:23:13.004Z,100553.66
2023-04-30T13:25:41.819Z,100563.59
2023-04-30T13:28:09.735Z,100558.50
2023-04-30T13:30:39.942Z,100539.38
2023-04-30T13:33:07.729Z,100542.06
2023-04-30T13:35:38.726Z,100524.81
2023-04-30T13:38:07.005Z,100535.22
2023-04-30T13:40:34.977Z,100523.81
2023-04-30T13:43:03.670Z,100532.41
2023-04-30T13:45:36.721Z,100536.47
2023-04-30T13:48:04.716Z,100533.06
2023-04-30T13:50:32.768Z,100534.47
2023-04-30T13:53:02.121Z,100523.50
2023-04-30T13:55:30.687Z,100517.19
2023-04-30T13:57:58.705Z,100529.22
2023-04-30T14:00:26.653Z,100529.88
2023-04-30T14:02:55.647Z,100529.38
2023-04-30T14:05:23.864Z,100522.56
2023-04-30T14:07:51.593Z,100516.94
2023-04-30T14:10:20.841Z,100518.69
2023-04-30T14:12:48.768Z,100525.50
2023-04-30T14:15:16.654Z,100519.31
2023-04-30T14:17:45.019Z,100527.31
2023-04-30T14:20:14.059Z,100511.34
2023-04-30T14:22:41.737Z,100510.56
2023-04-30T14:25:10.669Z,100517.72
2023-04-30T14:27:40.846Z,100504.78
2023-04-30T14:30:10.112Z,100519.22
2023-04-30T14:32:38.614Z,100508.00
2023-04-30T14:35:07.513Z,100507.38
2023-04-30T14:37:35.321Z,100517.34
2023-04-30T14:40:03.232Z,100512.50
2023-04-30T14:42:30.989Z,100514.13
2023-04-30T14:45:00.077Z,100500.91
2023-04-30T14:47:29.103Z,100499.28
2023-04-30T14:49:58.786Z,100500.94
2023-04-30T14:52:26.510Z,100499.41
2023-04-30T14:54:54.265Z,100507.34
2023-04-30T14:57:23.476Z,100503.97
2023-04-30T14:59:52.918Z,100493.03
2023-04-30T15:02:22.736Z,100495.06
2023-04-30T15:04:50.949Z,100496.63
2023-04-30T15:07:20.167Z,100485.13
2023-04-30T15:09:48.431Z,100482.59
2023-04-30T15:12:16.439Z,100476.31
2023-04-30T15:14:44.780Z,100481.41
2023-04-30T15:17:12.420Z,100486.69
2023-04-30T15:19:42.218Z,100483.94
2023-04-30T15:22:10.058Z,100474.69
2023-04-30T15:24:38.184Z,100477.69
2023-04-30T15:27:06.092Z,100473.72
2023-04-30T15:29:36.047Z,100485.38
2023-04-30T15:32:04.698Z,100488.47
2023-04-30T15:34:33.041Z,100497.28
2023-04-30T15:37:02.846Z,100491.00
2023-04-30T15:39:31.328Z,100498.50
2023-04-30T15:41:59.270Z,100479.13
2023-04-30T15:44:27.016Z,100479.34
2023-04-30T15:46:54.986Z,100470.00
2023-04-30T15:49:23.315Z,100475.13
2023-04-30T15:51:52.512Z,100472.16
2023-04-30T15:54:23.325Z,100471.34
2023-04-30T15:56:51.552Z,100472.19
2023-04-30T15:59:19.860Z,100465.50
2023-04-30T16:01:48.018Z,100468.47
2023-04-30T16:04:17.191Z,100470.38
2023-04-30T16:06:45.266Z,100464.97
2023-04-30T16:09:17.352Z,100451.84
2023-04-30T16:11:47.445Z,100467.34
2023-04-30T16:14:15.167Z,100457.63
2023-04-30T16:16:43.425Z,100456.97
2023-04-30T16:19:12.475Z,100456.44
2023-04-30T16:21:41.288Z,100456.66
2023-04-30T16:24:10.392Z,100455.94
2023-04-30T16:26:38.287Z,100448.72
2023-04-30T16:29:07.711Z,100460.03
2023-04-30T16:31:35.679Z,100461.19
2023-04-30T16:34:03.501Z,100463.59
2023-04-30T16:36:31.123Z,100457.69
2023-04-30T16:38:59.199Z,100456.09
2023-04-30T16:41:26.871Z,100456.81
2023-04-30T16:43:54.807Z,100440.00
2023-04-30T16:46:23.905Z,100447.91
2023-04-30T16:48:51.967Z,100449.03
2023-04-30T16:51:19.842Z,100449.84
2023-04-30T16:53:48.217Z,100448.59
2023-04-30T16:56:15.912Z,100445.03
2023-04-30T16:58:43.547Z,100454.22
2023-04-30T17:01:11.430Z,100444.47
2023-04-30T17:03:40.932Z,100447.53
2023-04-30T17:06:08.822Z,100440.34
2023-04-30T17:08:37.259Z,100445.41
2023-04-30T17:11:06.235Z,100431.53
2023-04-30T17:13:34.541Z,100436.78
2023-04-30T17:16:03.340Z,100439.28
2023-04-30T17:18:31.169Z,100439.28
2023-04-30T17:21:00.555Z,100437.00
2023-04-30T17:23:28.189Z,100443.31
2023-04-30T17:25:56.377Z,100429.00
2023-04-30T17:28:24.298Z,100424.13
2023-04-30T17:30:52.738Z,100430.56
2023-04-30T17:33:20.468Z,100439.72
2023-04-30T17:35:48.140Z,100442.03
2023-04-30T17:38:17.339Z,100447.09
2023-04-30T17:40:45.279Z,100450.44
2023-04-30T17:43:13.089Z,100453.81
2023-04-30T17:45:41.454Z,100455.66
2023-04-30T17:48:09.195Z,100461.41
2023-04-30T17:50:37.350Z,100460.19
2023-04-30T17:53:05.118Z,100458.06
2023-04-30T17:55:34.202Z,100457.31
2023-04-30T17:58:04.201Z,100454.19
2023-04-30T18:00:32.309Z,100457.22
2023-04-30T18:03:00.250Z,100457.59
2023-04-30T18:05:28.240Z,100466.81
2023-04-30T18:07:56.105Z,100461.09
2023-04-30T18:10:23.791Z,100460.56
2023-04-30T18:12:53.585Z,100468.19
2023-04-30T18:15:21.925Z,100466.97
2023-04-30T18:17:49.831Z,100466.09
2023-04-30T18:20:17.751Z,100456.81
2023-04-30T18:22:45.673Z,100456.16
2023-04-30T18:25:14.355Z,100460.00
2023-04-30T18:27:42.163Z,100464.66
2023-04-30T18:30:12.655Z,100467.03
2023-04-30T18:32:42.092Z,100463.63
2023-04-30T18:35:11.044Z,100474.03
2023-04-30T18:37:39.477Z,100469.41
2023-04-30T18:40:08.719Z,100472.88
2023-04-30T18:42:37.705Z,100472.56
2023-04-30T18:45:07.004Z,100474.06
2023-04-30T18:47:36.670Z,100466.88
2023-04-30T18:50:05.585Z,100476.69
2023-04-30T18:52:33.470Z,100483.13
2023-04-30T18:55:01.198Z,100483.88
2023-04-30T18:57:29.202Z,100480.63
2023-04-30T18:59:57.458Z,100479.84
2023-04-30T19:02:25.758Z,100481.13
2023-04-30T19:04:55.287Z,100483.94
2023-04-30T19:07:23.320Z,100481.59
2023-04-30T19:09:51.807Z,100480.56
2023-04-30T19:12:19.514Z,100484.22
2023-04-30T19:14:47.381Z,100483.38
2023-04-30T19:17:15.236Z,100479.31
2023-04-30T19:19:43.985Z,100487.47
2023-04-30T19:22:13.082Z,100486.69
2023-04-30T19:24:41.177Z,100492.00
2023-04-30T19:27:09.315Z,100485.53
2023-04-30T19:29:39.295Z,100490.78
2023-04-30T19:32:08.146Z,100494.22
2023-04-30T19:34:36.524Z,100496.75
2023-04-30T19:37:04.531Z,100496.84
2023-04-30T19:39:36.575Z,100504.88
2023-04-30T19:42:06.147Z,100498.13
2023-04-30T19:44:33.937Z,100508.09
2023-04-30T19:47:02.834Z,100502.34
2023-04-30T19:49:30.809Z,100511.06
2023-04-30T19:51:59.323Z,100504.16
2023-04-30T19:54:27.040Z,100501.69
2023-04-30T19:56:57.784Z,100504.03
2023-04-30T19:59:26.734Z,100500.44
2023-04-30T20:01:54.610Z,100494.34
2023-04-30T20:04:22.869Z,100503.06
2023-04-30T20:06:56.714Z,100501.19
2023-04-30T20:09:24.887Z,100505.50
2023-04-30T20:11:52.622Z,100495.75
2023-04-30T20:14:24.047Z,100509.81
2023-04-30T20:16:54.148Z,100494.66
2023-04-30T20:19:23.237Z,100499.34
2023-04-30T20:21:51.907Z,100493.31
2023-04-30T20:24:21.782Z,100495.09
2023-04-30T20:26:49.835Z,100495.09
2023-04-30T20:29:20.568Z,100499.66
2023-04-30T20:31:50.370Z,100500.75
2023-04-30T20:34:18.276Z,100492.72
2023-04-30T20:36:45.942Z,100490.88
2023-04-30T20:39:14.626Z,100483.88
2023-04-30T20:41:43.572Z,100482.84
2023-04-30T20:44:11.484Z,100485.53
2023-04-30T20:46:39.289Z,100488.78
2023-04-30T20:49:10.991Z,100485.72
2023-04-30T20:51:39.625Z,100494.84
2023-04-30T20:54:08.633Z,100493.91
2023-04-30T20:56:36.800Z,100494.06
2023-04-30T20:59:05.846Z,100502.88
2023-04-30T21:01:33.684Z,100499.03
2023-04-30T21:04:01.486Z,100488.28
2023-04-30T21:06:31.871Z,100497.09
2023-04-30T21:08:59.976Z,100504.72
2023-04-30T21:11:28.972Z,100501.25
2023-04-30T21:13:57.713Z,100490.91
2023-04-30T21:16:25.431Z,100496.69
2023-04-30T21:18:53.365Z,100494.91
2023-04-30T21:21:21.084Z,100495.00
2023-04-30T21:23:50.442Z,100495.50
2023-04-30T21:26:18.177Z,100490.19
2023-04-30T21:28:46.522Z,100489.50
2023-04-30T21:31:14.742Z,100492.88
2023-04-30T21:33:42.436Z,100493.81
2023-04-30T21:36:10.244Z,100489.50
2023-04-30T21:38:38.800Z,100485.47
2023-04-30T21:41:07.923Z,100488.06
2023-04-30T21:43:35.626Z,100484.69
2023-04-30T21:46:04.027Z,100486.47
2023-04-30T21:48:31.811Z,100480.06
2023-04-30T21:50:59.518Z,100477.75
2023-04-30T21:53:27.317Z,100475.13
2023-04-30T21:55:55.361Z,100477.00
2023-04-30T21:58:25.344Z,100475.66
2023-04-30T22:00:55.197Z,100472.88
2023-04-30T22:03:23.159Z,100472.16
2023-04-30T22:05:50.893Z,100477.22
2023-04-30T22:08:18.862Z,100483.53
2023-04-30T22:10:46.799Z,100474.66
2023-04-30T22:13:15.101Z,100473.06
2023-04-30T22:15:48.257Z,100476.69
2023-04-30T22:18:16.955Z,100474.13
2023-04-30T22:20:44.888Z,100472.53
2023-04-30T22:23:12.557Z,100469.75
2023-04-30T22:25:43.128Z,100466.53
2023-04-30T22:28:11.309Z,100465.00
2023-04-30T22:30:39.756Z,100466.69
2023-04-30T22:33:09.138Z,100464.56
2023-04-30T22:35:38.605Z,100459.78
2023-04-30T22:38:06.576Z,100454.72
2023-04-30T22:40:35.691Z,100459.66
2023-04-30T22:43:05.224Z,100459.78
2023-04-30T22:45:36.879Z,100459.88
2023-04-30T22:48:05.575Z,100466.44
2023-04-30T22:50:35.630Z,100459.69
2023-04-30T22:53:03.645Z,100449.94
2023-04-30T22:55:32.930Z,100460.13
2023-04-30T22:58:01.900Z,100448.34
2023-04-30T23:00:29.582Z,100456.09
2023-04-30T23:02:57.621Z,100457.09
2023-04-30T23:05:26.391Z,100459.34
2023-04-30T23:07:55.599Z,100457.41
2023-04-30T23:10:23.363Z,100456.78
2023-04-30T23:12:52.347Z,100463.78
2023-04-30T23:15:20.157Z,100456.31
2023-04-30T23:17:47.978Z,100456.31
2023-04-30T23:20:16.670Z,100452.72
2023-04-30T23:22:44.676Z,100455.78
2023-04-30T23:25:13.778Z,100453.31
2023-04-30T23:27:41.495Z,100449.88
2023-04-30T23:30:11.202Z,100449.94
2023-04-30T23:32:39.525Z,100447.56
2023-04-30T23:35:09.230Z,100439.97
2023-04-30T23:37:37.673Z,100450.72
2023-04-30T23:40:07.485Z,100448.59
2023-04-30T23:42:37.033Z,100441.00
2023-04-30T23:45:05.786Z,100440.31
2023-04-30T23:47:36.394Z,100442.25
2023-04-30T23:50:04.663Z,100437.00
2023-04-30T23:52:33.171Z,100438.00
2023-04-30T23:55:00.884Z,100435.47
2023-04-30T23:57:28.917Z,100432.25
2023-04-30T23:59:58.614Z,100425.72
